createdAt,value
2022-08-30T03:58:19.204Z,0.00
2022-08-30T03:59:18.853Z,0.00
2022-08-30T04:00:17.236Z,0.00
2022-08-30T04:01:18.919Z,0.00
2022-08-30T04:02:19.043Z,0.00
2022-08-30T04:03:18.964Z,0.00
2022-08-30T04:04:20.912Z,0.00
2022-08-30T04:05:18.853Z,0.00
2022-08-30T04:06:18.842Z,0.00
2022-08-30T04:07:18.862Z,4.00
2022-08-30T04:08:18.852Z,4.00
2022-08-30T04:09:18.855Z,0.00
2022-08-30T04:10:18.845Z,0.00
2022-08-30T04:11:18.859Z,4.00
2022-08-30T04:12:22.682Z,4.00
2022-08-30T04:13:18.850Z,4.00
2022-08-30T04:14:18.867Z,4.00
2022-08-30T04:15:18.877Z,8.00
2022-08-30T04:16:18.959Z,8.00
2022-08-30T04:17:18.869Z,8.00
2022-08-30T04:18:18.861Z,8.00
2022-08-30T04:19:17.151Z,8.00
2022-08-30T04:20:17.144Z,12.00
2022-08-30T04:21:18.867Z,12.00
2022-08-30T04:22:18.876Z,12.00
2022-08-30T04:23:18.855Z,16.00
2022-08-30T04:24:18.871Z,16.00
2022-08-30T04:25:18.855Z,20.00
2022-08-30T04:26:18.863Z,24.00
2022-08-30T04:27:18.864Z,28.00
2022-08-30T04:28:18.859Z,32.00
2022-08-30T04:29:18.916Z,32.00
2022-08-30T04:30:18.860Z,36.00
2022-08-30T04:31:18.920Z,40.00
2022-08-30T04:32:18.875Z,44.00
2022-08-30T04:33:18.862Z,52.00
2022-08-30T04:34:18.887Z,60.00
2022-08-30T04:35:18.881Z,64.00
2022-08-30T04:36:18.878Z,68.00
2022-08-30T04:37:18.868Z,80.00
2022-08-30T04:38:19.096Z,84.00
2022-08-30T04:39:18.886Z,92.00
2022-08-30T04:40:18.935Z,100.00
2022-08-30T04:41:17.091Z,104.00
2022-08-30T04:42:17.077Z,120.00
2022-08-30T04:43:17.345Z,124.00
2022-08-30T04:44:19.590Z,136.00
2022-08-30T04:45:18.883Z,144.00
2022-08-30T04:46:17.118Z,156.00
2022-08-30T04:47:17.069Z,164.00
2022-08-30T04:48:17.062Z,172.00
2022-08-30T04:49:17.069Z,188.00
2022-08-30T04:50:18.893Z,196.00
2022-08-30T04:51:18.877Z,208.00
2022-08-30T04:52:18.896Z,220.00
2022-08-30T04:53:18.882Z,236.00
2022-08-30T04:54:18.884Z,244.00
2022-08-30T04:55:20.357Z,256.00
2022-08-30T04:56:18.899Z,268.00
2022-08-30T04:57:18.885Z,280.00
2022-08-30T04:58:18.048Z,296.00
2022-08-30T04:59:18.885Z,304.00
2022-08-30T05:00:18.927Z,316.00
2022-08-30T05:01:20.010Z,328.00
2022-08-30T05:02:17.052Z,340.00
2022-08-30T05:03:18.930Z,356.00
2022-08-30T05:04:17.028Z,368.00
2022-08-30T05:05:17.945Z,384.00
2022-08-30T05:06:17.927Z,396.00
2022-08-30T05:07:17.010Z,408.00
2022-08-30T05:08:17.006Z,424.00
2022-08-30T05:09:17.004Z,440.00
2022-08-30T05:10:18.908Z,456.00
2022-08-30T05:11:17.010Z,476.00
2022-08-30T05:12:18.926Z,488.00
2022-08-30T05:13:17.085Z,500.00
2022-08-30T05:14:17.001Z,516.00
2022-08-30T05:15:16.995Z,528.00
2022-08-30T05:16:18.973Z,544.00
2022-08-30T05:17:16.986Z,560.00
2022-08-30T05:18:16.980Z,572.00
2022-08-30T05:19:16.983Z,592.00
2022-08-30T05:20:16.982Z,600.00
2022-08-30T05:21:18.920Z,612.00
2022-08-30T05:22:16.973Z,624.00
2022-08-30T05:23:18.293Z,640.00
2022-08-30T05:24:18.943Z,644.00
2022-08-30T05:25:16.965Z,652.00
2022-08-30T05:26:18.928Z,664.00
2022-08-30T05:27:16.963Z,676.00
2022-08-30T05:28:21.933Z,688.00
2022-08-30T05:29:16.949Z,700.00
2022-08-30T05:30:18.919Z,708.00
2022-08-30T05:31:18.969Z,716.00
2022-08-30T05:32:16.945Z,724.00
2022-08-30T05:33:18.916Z,736.00
2022-08-30T05:34:16.941Z,744.00
2022-08-30T05:35:23.539Z,752.00
2022-08-30T05:36:16.945Z,768.00
2022-08-30T05:37:18.450Z,784.00
2022-08-30T05:38:18.926Z,788.00
2022-08-30T05:39:17.916Z,792.00
2022-08-30T05:40:18.463Z,784.00
2022-08-30T05:41:18.455Z,784.00
2022-08-30T05:42:18.438Z,792.00
2022-08-30T05:43:18.422Z,800.00
2022-08-30T05:44:19.117Z,812.00
2022-08-30T05:45:16.944Z,820.00
2022-08-30T05:46:18.538Z,832.00
2022-08-30T05:47:17.434Z,856.00
2022-08-30T05:48:18.165Z,888.00
2022-08-30T05:49:19.022Z,908.00
2022-08-30T05:50:16.897Z,1080.00
2022-08-30T05:51:19.440Z,1152.00
2022-08-30T05:52:18.446Z,964.00
2022-08-30T05:53:16.919Z,1296.00
2022-08-30T05:54:16.939Z,1444.00
2022-08-30T05:55:16.890Z,1592.00
2022-08-30T05:56:18.205Z,1804.00
2022-08-30T05:57:17.994Z,1976.00
2022-08-30T05:58:17.031Z,1864.00
2022-08-30T05:59:19.744Z,2084.00
2022-08-30T06:00:19.570Z,2256.00
2022-08-30T06:01:18.247Z,2296.00
2022-08-30T06:02:33.000Z,2448.00
2022-08-30T06:03:24.303Z,2504.00
2022-08-30T06:04:16.943Z,2544.00
2022-08-30T06:05:16.952Z,2572.00
2022-08-30T06:06:18.447Z,2640.00
2022-08-30T06:07:19.997Z,2656.00
2022-08-30T06:08:18.687Z,2684.00
2022-08-30T06:09:16.855Z,2668.00
2022-08-30T06:10:16.891Z,2360.00
2022-08-30T06:11:16.911Z,2688.00
2022-08-30T06:12:16.880Z,2740.00
2022-08-30T06:13:18.459Z,2824.00
2022-08-30T06:14:18.470Z,2860.00
2022-08-30T06:15:16.861Z,2864.00
2022-08-30T06:16:16.873Z,2908.00
2022-08-30T06:17:16.869Z,2928.00
2022-08-30T06:18:18.649Z,2952.00
2022-08-30T06:19:16.838Z,2992.00
2022-08-30T06:20:18.496Z,3048.00
2022-08-30T06:21:16.839Z,3072.00
2022-08-30T06:22:16.852Z,3072.00
2022-08-30T06:23:18.510Z,3084.00
2022-08-30T06:24:16.863Z,3132.00
2022-08-30T06:25:16.879Z,3180.00
2022-08-30T06:26:16.837Z,3228.00
2022-08-30T06:27:18.462Z,3248.00
2022-08-30T06:28:18.628Z,3284.00
2022-08-30T06:29:18.491Z,3328.00
2022-08-30T06:30:18.894Z,3360.00
2022-08-30T06:31:18.519Z,3416.00
2022-08-30T06:32:18.487Z,3448.00
2022-08-30T06:33:16.814Z,3484.00
2022-08-30T06:34:18.488Z,3548.00
2022-08-30T06:35:16.857Z,3580.00
2022-08-30T06:36:18.588Z,3588.00
2022-08-30T06:37:29.637Z,3612.00
2022-08-30T06:38:17.294Z,3652.00
2022-08-30T06:39:18.002Z,3656.00
2022-08-30T06:40:23.100Z,3684.00
2022-08-30T06:41:16.869Z,3728.00
2022-08-30T06:42:16.827Z,3728.00
2022-08-30T06:43:17.525Z,3764.00
2022-08-30T06:44:16.829Z,3784.00
2022-08-30T06:45:18.134Z,3788.00
2022-08-30T06:46:16.853Z,3832.00
2022-08-30T06:47:16.796Z,3824.00
2022-08-30T06:48:18.964Z,3848.00
2022-08-30T06:49:18.513Z,3888.00
2022-08-30T06:50:18.522Z,3880.00
2022-08-30T06:51:17.502Z,3876.00
2022-08-30T06:52:16.795Z,3904.00
2022-08-30T06:53:18.505Z,3876.00
2022-08-30T06:54:18.517Z,3916.00
2022-08-30T06:55:16.839Z,3988.00
2022-08-30T06:56:18.950Z,3996.00
2022-08-30T06:57:16.788Z,3988.00
2022-08-30T06:58:18.606Z,4016.00
2022-08-30T06:59:16.783Z,4044.00
2022-08-30T07:00:16.782Z,4064.00
2022-08-30T07:01:18.537Z,4096.00
2022-08-30T07:02:16.851Z,4068.00
2022-08-30T07:03:16.852Z,4132.00
2022-08-30T07:04:18.543Z,4128.00
2022-08-30T07:05:18.901Z,4144.00
2022-08-30T07:06:16.786Z,4136.00
2022-08-30T07:07:18.499Z,4156.00
2022-08-30T07:08:18.934Z,4156.00
2022-08-30T07:09:16.881Z,4116.00
2022-08-30T07:10:18.512Z,4100.00
2022-08-30T07:11:18.552Z,4196.00
2022-08-30T07:12:18.517Z,4156.00
2022-08-30T07:13:17.060Z,4192.00
2022-08-30T07:14:16.777Z,4164.00
2022-08-30T07:15:18.586Z,4192.00
2022-08-30T07:16:18.057Z,4216.00
2022-08-30T07:17:16.795Z,4236.00
2022-08-30T07:18:18.566Z,4224.00
2022-08-30T07:19:20.635Z,4228.00
2022-08-30T07:20:16.783Z,4228.00
2022-08-30T07:21:18.521Z,4240.00
2022-08-30T07:22:16.897Z,4256.00
2022-08-30T07:23:16.994Z,4256.00
2022-08-30T07:24:17.615Z,4272.00
2022-08-30T07:25:16.886Z,4264.00
2022-08-30T07:26:18.543Z,4268.00
2022-08-30T07:27:16.885Z,3560.00
2022-08-30T07:28:19.771Z,4248.00
2022-08-30T07:29:22.598Z,4284.00
2022-08-30T07:30:40.423Z,4232.00
2022-08-30T07:31:31.956Z,4256.00
2022-08-30T07:32:25.587Z,4332.00
2022-08-30T07:33:25.979Z,4416.00
2022-08-30T07:34:18.338Z,1520.00
2022-08-30T07:35:16.777Z,4320.00
2022-08-30T07:36:19.633Z,4380.00
2022-08-30T07:37:18.217Z,4344.00
2022-08-30T07:38:18.956Z,4248.00
2022-08-30T07:39:17.029Z,4364.00
2022-08-30T07:40:17.951Z,4372.00
2022-08-30T07:41:19.803Z,4272.00
2022-08-30T07:42:21.144Z,4356.00
2022-08-30T07:43:18.930Z,4372.00
2022-08-30T07:44:16.782Z,4400.00
2022-08-30T07:45:17.847Z,4188.00
2022-08-30T07:46:19.393Z,4316.00
2022-08-30T07:47:16.803Z,3076.00
2022-08-30T07:48:18.096Z,4320.00
2022-08-30T07:49:17.680Z,4496.00
2022-08-30T07:50:19.182Z,4524.00
2022-08-30T07:51:18.820Z,4280.00
2022-08-30T07:52:16.890Z,4408.00
2022-08-30T07:53:18.929Z,4568.00
2022-08-30T07:54:17.781Z,4584.00
2022-08-30T07:55:19.630Z,4484.00
2022-08-30T07:56:17.774Z,4676.00
2022-08-30T07:57:18.065Z,4668.00
2022-08-30T07:58:19.192Z,4340.00
2022-08-30T07:59:16.867Z,4656.00
2022-08-30T08:00:18.580Z,2676.00
2022-08-30T08:01:19.601Z,4068.00
2022-08-30T08:02:18.609Z,5584.00
2022-08-30T08:03:18.577Z,3872.00
2022-08-30T08:04:17.082Z,3040.00
2022-08-30T08:05:18.222Z,3128.00
2022-08-30T08:06:18.592Z,2872.00
2022-08-30T08:07:18.590Z,2956.00
2022-08-30T08:08:18.803Z,3488.00
2022-08-30T08:09:18.575Z,2420.00
2022-08-30T08:10:16.856Z,2588.00
2022-08-30T08:11:18.591Z,4756.00
2022-08-30T08:12:18.559Z,4576.00
2022-08-30T08:13:18.592Z,2044.00
2022-08-30T08:14:18.562Z,1912.00
2022-08-30T08:15:18.677Z,1856.00
2022-08-30T08:16:18.641Z,1752.00
2022-08-30T08:17:18.695Z,1644.00
2022-08-30T08:18:18.792Z,1612.00
2022-08-30T08:19:18.566Z,1736.00
2022-08-30T08:20:18.590Z,1736.00
2022-08-30T08:21:16.824Z,1736.00
2022-08-30T08:22:21.301Z,1812.00
2022-08-30T08:23:18.608Z,1968.00
2022-08-30T08:24:16.839Z,2064.00
2022-08-30T08:25:16.844Z,2052.00
2022-08-30T08:26:16.911Z,2116.00
2022-08-30T08:27:16.826Z,2212.00
2022-08-30T08:28:19.086Z,2400.00
2022-08-30T08:29:17.659Z,2648.00
2022-08-30T08:30:16.821Z,2492.00
2022-08-30T08:31:17.895Z,2436.00
2022-08-30T08:32:18.592Z,2468.00
2022-08-30T08:33:16.940Z,2544.00
2022-08-30T08:34:16.937Z,2552.00
2022-08-30T08:35:17.864Z,2568.00
2022-08-30T08:36:16.848Z,2888.00
2022-08-30T08:37:18.730Z,2528.00
2022-08-30T08:38:16.898Z,2744.00
2022-08-30T08:39:18.615Z,2904.00
2022-08-30T08:40:18.796Z,3028.00
2022-08-30T08:41:16.869Z,3164.00
2022-08-30T08:42:17.177Z,3360.00
2022-08-30T08:43:17.907Z,3456.00
2022-08-30T08:44:18.617Z,3544.00
2022-08-30T08:45:16.815Z,4156.00
2022-08-30T08:46:16.860Z,3336.00
2022-08-30T08:47:16.836Z,3340.00
2022-08-30T08:48:16.986Z,3260.00
2022-08-30T08:49:18.216Z,3200.00
2022-08-30T08:50:24.792Z,3320.00
2022-08-30T08:51:32.894Z,3268.00
2022-08-30T08:52:20.664Z,3252.00
2022-08-30T08:53:36.190Z,3272.00
2022-08-30T08:54:18.629Z,3272.00
2022-08-30T08:55:18.680Z,3288.00
2022-08-30T08:56:18.748Z,3196.00
2022-08-30T08:57:18.553Z,3144.00
2022-08-30T08:58:17.470Z,3196.00
2022-08-30T08:59:16.993Z,4072.00
2022-08-30T09:00:34.133Z,3196.00
2022-08-30T09:01:17.089Z,5012.00
2022-08-30T09:02:21.301Z,2940.00
2022-08-30T09:03:16.822Z,2944.00
2022-08-30T09:04:20.660Z,4552.00
2022-08-30T09:05:25.958Z,2784.00
2022-08-30T09:06:16.827Z,2800.00
2022-08-30T09:07:45.793Z,2696.00
2022-08-30T09:08:18.138Z,2688.00
2022-08-30T09:09:16.855Z,2564.00
2022-08-30T09:10:29.931Z,2352.00
2022-08-30T09:12:18.702Z,2920.00
2022-08-30T09:13:18.950Z,2648.00
2022-08-30T09:14:18.681Z,2452.00
2022-08-30T09:15:18.652Z,2096.00
2022-08-30T09:16:22.523Z,2132.00
2022-08-30T09:17:17.015Z,3056.00
2022-08-30T09:18:19.796Z,2036.00
2022-08-30T09:19:16.945Z,2124.00
2022-08-30T09:20:18.656Z,2208.00
2022-08-30T09:21:20.311Z,2132.00
2022-08-30T09:23:31.254Z,4136.00
2022-08-30T09:24:25.323Z,4232.00
2022-08-30T09:25:26.192Z,2772.00
2022-08-30T09:26:19.493Z,2764.00
2022-08-30T09:27:32.756Z,2380.00
2022-08-30T09:28:25.252Z,2428.00
2022-08-30T09:29:18.442Z,2556.00
2022-08-30T09:30:18.797Z,4472.00
2022-08-30T09:31:17.055Z,3848.00
2022-08-30T09:32:25.107Z,3192.00
2022-08-30T09:33:23.873Z,3476.00
2022-08-30T09:34:18.402Z,4692.00
2022-08-30T09:35:19.947Z,4528.00
2022-08-30T09:36:17.686Z,4928.00
2022-08-30T09:37:18.909Z,4548.00
2022-08-30T09:38:17.009Z,4916.00
2022-08-30T09:39:16.968Z,4196.00
2022-08-30T09:40:16.991Z,3324.00
2022-08-30T09:41:17.787Z,3196.00
2022-08-30T09:42:18.665Z,3144.00
2022-08-30T09:43:16.862Z,2948.00
2022-08-30T09:44:19.105Z,3712.00
2022-08-30T09:45:17.514Z,4324.00
2022-08-30T09:46:20.425Z,4224.00
2022-08-30T09:47:22.117Z,4064.00
2022-08-30T09:48:17.138Z,3128.00
2022-08-30T09:49:16.888Z,3604.00
2022-08-30T09:50:18.740Z,3568.00
2022-08-30T09:51:19.671Z,3452.00
2022-08-30T09:52:18.692Z,3296.00
2022-08-30T09:53:23.304Z,3308.00
2022-08-30T09:54:18.349Z,3264.00
2022-08-30T09:55:16.889Z,1824.00
2022-08-30T09:56:18.691Z,1976.00
2022-08-30T09:57:16.882Z,3364.00
2022-08-30T09:58:17.205Z,3060.00
2022-08-30T09:59:16.888Z,3312.00
2022-08-30T10:00:16.994Z,1864.00
2022-08-30T10:01:18.818Z,2984.00
2022-08-30T10:12:39.006Z,3224.00
2022-08-30T10:13:37.178Z,3104.00
2022-08-30T10:14:37.041Z,3204.00
2022-08-30T10:15:39.120Z,3348.00
2022-08-30T10:16:37.173Z,2500.00
2022-08-30T10:17:43.279Z,2504.00
2022-08-30T10:18:40.058Z,3356.00
2022-08-30T10:19:39.066Z,3436.00
2022-08-30T10:20:38.522Z,2552.00
2022-08-30T10:21:37.105Z,4608.00
2022-08-30T10:22:37.281Z,3488.00
2022-08-30T10:23:37.050Z,3344.00
2022-08-30T10:24:38.521Z,3364.00
2022-08-30T10:25:39.017Z,3360.00
2022-08-30T10:26:38.528Z,3224.00
2022-08-30T10:27:38.049Z,3352.00
2022-08-30T10:28:37.087Z,3448.00
2022-08-30T10:29:40.624Z,3468.00
2022-08-30T10:30:37.051Z,3540.00
2022-08-30T10:31:38.058Z,3596.00
2022-08-30T10:32:37.081Z,3768.00
2022-08-30T10:33:37.055Z,3756.00
2022-08-30T10:34:39.074Z,3660.00
2022-08-30T10:35:38.929Z,3708.00
2022-08-30T10:36:39.031Z,3628.00
2022-08-30T10:37:37.082Z,3576.00
2022-08-30T10:38:38.139Z,3756.00
2022-08-30T10:39:37.099Z,3916.00
2022-08-30T10:40:39.112Z,3864.00
2022-08-30T10:41:39.056Z,3860.00
2022-08-30T10:42:40.085Z,3728.00
2022-08-30T10:43:39.111Z,3728.00
2022-08-30T10:44:37.115Z,3732.00
2022-08-30T10:45:39.119Z,3788.00
2022-08-30T10:46:37.089Z,3840.00
2022-08-30T10:47:37.130Z,3756.00
2022-08-30T10:48:38.146Z,3564.00
2022-08-30T10:49:40.457Z,3592.00
2022-08-30T10:50:41.352Z,3600.00
2022-08-30T10:51:39.034Z,3668.00
2022-08-30T10:52:37.139Z,3732.00
2022-08-30T10:53:39.048Z,3820.00
2022-08-30T10:54:37.105Z,3940.00
2022-08-30T10:55:39.126Z,4000.00
2022-08-30T10:56:37.119Z,4092.00
2022-08-30T10:57:39.058Z,4056.00
2022-08-30T10:58:38.599Z,3748.00
2022-08-30T10:59:37.216Z,3556.00
2022-08-30T11:00:37.193Z,3712.00
2022-08-30T11:01:37.213Z,3824.00
2022-08-30T11:02:39.057Z,3836.00
2022-08-30T11:03:39.247Z,4148.00
2022-08-30T11:04:37.193Z,4200.00
2022-08-30T11:05:40.719Z,4224.00
2022-08-30T11:06:37.154Z,4100.00
2022-08-30T11:07:40.093Z,3740.00
2022-08-30T11:08:37.189Z,3708.00
2022-08-30T11:09:37.677Z,4056.00
2022-08-30T11:10:37.232Z,4312.00
2022-08-30T11:11:38.588Z,4276.00
2022-08-30T11:12:37.178Z,4552.00
2022-08-30T11:13:39.220Z,4640.00
2022-08-30T11:14:38.123Z,4864.00
2022-08-30T11:15:43.294Z,4900.00
2022-08-30T11:16:41.571Z,4952.00
2022-08-30T11:17:37.873Z,4900.00
2022-08-30T11:18:44.172Z,4776.00
2022-08-30T11:19:43.080Z,4596.00
2022-08-30T11:20:42.183Z,4552.00
2022-08-30T11:21:38.331Z,4848.00
2022-08-30T11:22:39.232Z,4904.00
2022-08-30T11:23:38.446Z,4968.00
2022-08-30T11:24:40.305Z,4924.00
2022-08-30T11:25:38.811Z,4972.00
2022-08-30T11:26:38.047Z,5036.00
2022-08-30T11:27:40.230Z,5208.00
2022-08-30T11:28:45.208Z,5180.00
2022-08-30T11:29:45.227Z,5188.00
2022-08-30T11:30:38.567Z,5364.00
2022-08-30T11:31:38.341Z,5640.00
2022-08-30T11:32:38.675Z,5616.00
2022-08-30T11:33:39.632Z,5724.00
2022-08-30T11:34:40.210Z,5932.00
2022-08-30T11:35:38.831Z,5976.00
2022-08-30T11:36:53.203Z,4108.00
2022-08-30T11:37:42.799Z,4160.00
2022-08-30T11:38:37.357Z,3856.00
2022-08-30T11:39:37.342Z,3828.00
2022-08-30T11:40:39.127Z,3708.00
2022-08-30T11:41:41.894Z,3688.00
2022-08-30T11:42:37.323Z,6864.00
2022-08-30T11:43:37.354Z,6816.00
2022-08-30T11:44:37.482Z,6700.00
2022-08-30T11:45:41.951Z,6368.00
2022-08-30T11:46:37.358Z,6244.00
2022-08-30T11:47:39.139Z,6248.00
2022-08-30T11:48:39.215Z,6280.00
2022-08-30T11:49:38.006Z,6436.00
2022-08-30T11:50:37.368Z,6384.00
2022-08-30T11:51:39.130Z,6672.00
2022-08-30T11:52:37.378Z,6848.00
2022-08-30T11:53:39.207Z,6852.00
2022-08-30T11:54:37.400Z,6916.00
2022-08-30T11:55:39.087Z,7160.00
2022-08-30T11:56:44.631Z,7204.00
2022-08-30T11:57:39.154Z,7260.00
2022-08-30T11:58:37.470Z,7212.00
2022-08-30T11:59:37.449Z,7272.00
2022-08-30T12:00:39.728Z,6988.00
2022-08-30T12:01:51.165Z,7608.00
2022-08-30T12:02:38.244Z,7668.00
2022-08-30T12:03:38.889Z,7972.00
2022-08-30T12:04:38.048Z,8376.00
2022-08-30T12:05:38.373Z,7948.00
2022-08-30T12:06:40.148Z,8132.00
2022-08-30T12:07:39.166Z,6464.00
2022-08-30T12:08:38.842Z,4168.00
2022-08-30T12:09:37.512Z,4376.00
2022-08-30T12:10:44.616Z,4444.00
2022-08-30T12:11:37.576Z,5352.00
2022-08-30T12:12:39.973Z,8324.00
2022-08-30T12:13:37.809Z,10200.00
2022-08-30T12:15:05.175Z,8252.00
2022-08-30T12:17:27.962Z,4588.00
2022-08-30T12:19:19.281Z,4260.00
2022-08-30T12:20:24.587Z,4156.00
2022-08-30T12:21:23.222Z,6252.00
2022-08-30T12:22:17.934Z,9540.00
2022-08-30T12:23:17.864Z,9748.00
2022-08-30T12:24:17.857Z,9852.00
2022-08-30T12:25:17.924Z,9524.00
2022-08-30T12:26:20.250Z,9204.00
2022-08-30T12:27:17.960Z,9192.00
2022-08-30T12:28:18.081Z,9340.00
2022-08-30T12:29:17.892Z,9504.00
2022-08-30T12:30:18.897Z,9640.00
2022-08-30T12:32:19.886Z,6576.00
2022-08-30T12:33:17.903Z,3520.00
2022-08-30T12:34:17.973Z,3684.00
2022-08-30T12:35:17.927Z,8724.00
2022-08-30T12:37:22.418Z,10140.00
2022-08-30T12:38:18.177Z,10520.00
2022-08-30T12:39:17.999Z,10388.00
2022-08-30T12:40:18.008Z,10160.00
2022-08-30T12:41:20.984Z,10112.00
2022-08-30T12:42:18.234Z,10228.00
2022-08-30T12:43:18.966Z,10332.00
2022-08-30T12:44:20.093Z,10460.00
2022-08-30T12:45:19.908Z,10456.00
2022-08-30T12:46:18.049Z,10648.00
2022-08-30T12:47:19.928Z,10844.00
2022-08-30T12:48:18.334Z,11068.00
2022-08-30T12:49:22.341Z,11312.00
2022-08-30T12:50:24.427Z,11620.00
2022-08-30T12:51:21.023Z,11772.00
2022-08-30T12:52:19.613Z,11804.00
2022-08-30T12:53:19.066Z,11876.00
2022-08-30T12:54:21.709Z,12008.00
2022-08-30T12:55:19.309Z,12236.00
2022-08-30T12:56:35.044Z,12364.00
2022-08-30T12:57:34.918Z,12752.00
2022-08-30T12:58:19.903Z,12788.00
2022-08-30T12:59:26.172Z,12792.00
2022-08-30T13:00:20.059Z,12852.00
2022-08-30T13:01:20.583Z,12984.00
2022-08-30T13:02:20.361Z,13164.00
2022-08-30T13:03:21.861Z,13108.00
2022-08-30T13:04:19.339Z,13040.00
2022-08-30T13:05:20.748Z,13112.00
2022-08-30T13:06:19.964Z,13196.00
2022-08-30T13:07:20.058Z,13108.00
2022-08-30T13:08:18.568Z,13300.00
2022-08-30T13:09:18.293Z,13472.00
2022-08-30T13:10:19.490Z,13660.00
2022-08-30T13:11:19.963Z,13852.00
2022-08-30T13:12:19.087Z,14076.00
2022-08-30T13:13:20.998Z,14328.00
2022-08-30T13:14:19.936Z,14616.00
2022-08-30T13:15:20.449Z,14980.00
2022-08-30T13:16:18.352Z,15444.00
2022-08-30T13:17:18.292Z,14232.00
2022-08-30T13:18:22.262Z,15928.00
2022-08-30T13:20:18.339Z,16072.00
2022-08-30T13:21:19.373Z,16088.00
2022-08-30T13:22:20.935Z,16256.00
2022-08-30T13:23:20.482Z,16244.00
2022-08-30T13:24:26.066Z,16396.00
2022-08-30T13:25:19.929Z,16032.00
2022-08-30T13:26:40.015Z,16644.00
2022-08-30T13:28:55.596Z,17504.00
2022-08-30T13:29:57.353Z,17900.00
2022-08-30T13:30:58.097Z,18208.00
2022-08-30T13:31:56.496Z,18752.00
2022-08-30T13:32:56.257Z,19392.00
2022-08-30T13:33:56.540Z,20128.00
2022-08-30T13:34:55.418Z,21728.00
2022-08-30T13:35:57.129Z,24832.00
2022-08-30T13:36:57.106Z,34496.00
2022-08-30T13:37:57.099Z,45152.00
2022-08-30T13:38:57.120Z,53696.00
2022-08-30T13:39:59.208Z,55808.00
2022-08-30T13:40:57.175Z,50656.00
2022-08-30T13:42:31.306Z,51840.00
2022-08-30T13:42:55.555Z,54496.00
2022-08-30T13:44:14.259Z,52864.00
2022-08-30T13:44:55.540Z,51168.00
2022-08-30T13:45:55.808Z,49184.00
2022-08-30T13:47:32.272Z,48320.00
2022-08-30T13:47:58.516Z,55648.00
2022-08-30T13:48:57.120Z,56512.00
2022-08-30T13:49:55.801Z,53280.00
2022-08-30T13:50:55.586Z,7432.00
2022-08-30T13:52:18.562Z,7704.00
2022-08-30T13:52:57.131Z,15584.00
2022-08-30T13:53:55.933Z,7808.00
2022-08-30T13:54:55.655Z,15268.00
2022-08-30T13:55:55.676Z,8004.00
2022-08-30T13:56:55.675Z,8852.00
2022-08-30T13:57:58.046Z,6600.00
2022-08-30T13:58:55.683Z,5692.00
2022-08-30T13:59:55.703Z,5892.00
2022-08-30T14:00:55.776Z,7420.00
2022-08-30T14:02:13.134Z,7204.00
2022-08-30T14:02:56.151Z,20000.00
2022-08-30T14:04:59.712Z,35968.00
2022-08-30T14:06:15.801Z,46304.00
2022-08-30T14:07:19.824Z,55808.00
2022-08-30T14:07:55.766Z,54624.00
2022-08-30T14:09:01.388Z,51712.00
2022-08-30T14:10:30.451Z,54528.00
2022-08-30T14:10:55.803Z,54080.00
2022-08-30T14:11:55.796Z,57984.00
2022-08-30T14:13:02.509Z,51616.00
2022-08-30T14:14:59.577Z,54112.00
2022-08-30T14:16:55.904Z,52288.00
2022-08-30T14:17:57.652Z,55392.00
2022-08-30T14:18:56.141Z,58432.00
2022-08-30T14:19:55.874Z,57760.00
2022-08-30T14:20:55.885Z,57824.00
2022-08-30T14:21:55.906Z,55136.00
2022-08-30T14:22:55.904Z,52192.00
2022-08-30T14:23:57.950Z,54016.00
2022-08-30T14:24:57.668Z,57184.00
2022-08-30T14:25:55.948Z,58208.00
2022-08-30T14:26:55.956Z,59328.00
2022-08-30T14:27:55.969Z,60160.00
2022-08-30T14:28:57.681Z,60736.00
2022-08-30T14:29:57.067Z,59424.00
2022-08-30T14:30:56.003Z,58688.00
2022-08-30T14:31:59.697Z,57600.00
2022-08-30T14:32:57.664Z,62048.00
2022-08-30T14:33:57.685Z,62944.00
2022-08-30T14:34:57.033Z,62656.00
2022-08-30T14:35:57.681Z,65472.00
2022-08-30T14:36:57.682Z,59776.00
2022-08-30T14:37:57.672Z,64800.00
2022-08-30T14:38:57.696Z,66624.00
2022-08-30T14:39:57.717Z,6576.00
2022-08-30T14:40:57.668Z,5828.00
2022-08-30T14:41:57.680Z,6416.00
2022-08-30T14:42:57.669Z,7644.00
2022-08-30T14:43:57.706Z,15312.00
2022-08-30T14:44:57.688Z,52864.00
2022-08-30T14:45:57.752Z,31168.00
2022-08-30T14:46:57.686Z,49952.00
2022-08-30T14:47:57.684Z,10244.00
2022-08-30T14:48:57.695Z,33664.00
2022-08-30T14:49:57.682Z,12492.00
2022-08-30T14:50:57.690Z,38592.00
2022-08-30T14:51:58.183Z,12732.00
2022-08-30T14:52:58.196Z,45440.00
2022-08-30T14:53:58.190Z,44896.00
2022-08-30T14:55:02.438Z,9660.00
2022-08-30T14:55:58.200Z,6284.00
2022-08-30T14:56:58.188Z,5444.00
2022-08-30T14:57:56.256Z,5136.00
2022-08-30T14:58:56.281Z,5040.00
2022-08-30T14:59:57.731Z,5172.00
2022-08-30T15:00:56.342Z,5324.00
2022-08-30T15:01:56.293Z,5436.00
2022-08-30T15:02:57.710Z,46912.00
2022-08-30T15:03:56.333Z,44064.00
2022-08-30T15:04:58.228Z,43584.00
2022-08-30T15:05:56.322Z,41088.00
2022-08-30T15:06:58.201Z,39488.00
2022-08-30T15:07:56.361Z,42336.00
2022-08-30T15:08:58.227Z,41568.00
2022-08-30T15:09:56.350Z,40256.00
2022-08-30T15:10:58.205Z,37632.00
2022-08-30T15:11:58.746Z,39520.00
2022-08-30T15:12:58.237Z,40032.00
2022-08-30T15:13:58.229Z,37696.00
2022-08-30T15:14:59.753Z,38848.00
2022-08-30T15:15:56.472Z,33120.00
2022-08-30T15:16:58.276Z,36256.00
2022-08-30T15:17:58.237Z,39072.00
2022-08-30T15:18:57.422Z,39840.00
2022-08-30T15:19:56.425Z,39808.00
2022-08-30T15:20:58.231Z,39680.00
2022-08-30T15:21:58.239Z,37472.00
2022-08-30T15:22:57.762Z,27744.00
2022-08-30T15:23:57.246Z,31808.00
2022-08-30T15:24:58.253Z,35360.00
2022-08-30T15:25:56.483Z,13980.00
2022-08-30T15:26:58.244Z,15268.00
2022-08-30T15:27:57.742Z,20512.00
2022-08-30T15:28:58.358Z,34624.00
2022-08-30T15:29:56.515Z,29408.00
2022-08-30T15:30:58.254Z,24448.00
2022-08-30T15:31:56.547Z,21696.00
2022-08-30T15:32:58.251Z,20352.00
2022-08-30T15:33:58.248Z,19008.00
2022-08-30T15:34:57.541Z,16084.00
2022-08-30T15:35:58.260Z,16912.00
2022-08-30T15:36:56.552Z,18348.00
2022-08-30T15:37:56.560Z,15640.00
2022-08-30T15:38:58.256Z,9680.00
2022-08-30T15:39:56.588Z,5880.00
2022-08-30T15:40:58.263Z,5248.00
2022-08-30T15:42:01.226Z,4832.00
2022-08-30T15:42:56.598Z,4836.00
2022-08-30T15:43:56.602Z,4764.00
2022-08-30T15:44:56.612Z,4652.00
2022-08-30T15:45:56.620Z,4400.00
2022-08-30T15:46:58.361Z,4300.00
2022-08-30T15:47:56.639Z,4132.00
2022-08-30T15:48:58.270Z,3972.00
2022-08-30T15:49:56.641Z,4036.00
2022-08-30T15:50:56.639Z,4092.00
2022-08-30T15:51:56.653Z,4120.00
2022-08-30T15:52:56.649Z,4112.00
2022-08-30T15:53:58.275Z,4084.00
2022-08-30T15:54:56.660Z,4036.00
2022-08-30T15:55:58.285Z,3980.00
2022-08-30T15:56:56.680Z,3896.00
2022-08-30T15:57:57.684Z,3772.00
2022-08-30T15:58:58.291Z,3672.00
2022-08-30T15:59:56.698Z,3560.00
2022-08-30T16:12:02.567Z,2852.00
2022-08-30T16:13:02.006Z,2760.00
2022-08-30T16:14:02.038Z,2676.00
2022-08-30T16:15:02.557Z,2628.00
2022-08-30T16:16:02.075Z,2564.00
2022-08-30T16:17:02.573Z,2532.00
2022-08-30T16:18:01.014Z,2484.00
2022-08-30T16:19:02.009Z,2464.00
2022-08-30T16:20:02.067Z,2456.00
2022-08-30T16:21:02.079Z,2376.00
2022-08-30T16:22:01.024Z,2364.00
2022-08-30T16:23:02.554Z,2356.00
2022-08-30T16:24:02.046Z,2312.00
2022-08-30T16:25:02.070Z,2248.00
2022-08-30T16:26:03.389Z,2208.00
2022-08-30T16:27:02.761Z,2192.00
2022-08-30T16:28:02.041Z,2176.00
2022-08-30T16:29:01.038Z,2152.00
2022-08-30T16:30:01.053Z,2148.00
2022-08-30T16:31:01.114Z,2124.00
2022-08-30T16:32:02.590Z,2104.00
2022-08-30T16:33:02.056Z,2084.00
2022-08-30T16:34:02.818Z,2040.00
2022-08-30T16:35:03.293Z,1932.00
2022-08-30T16:36:01.062Z,1792.00
2022-08-30T16:37:02.589Z,1704.00
2022-08-30T16:38:02.086Z,1648.00